Time;durP1;ratioP1;P1;durP2;ratioP2;P2;SDS_P1;SDS_P2;PMS_P1;PMS_P2;Temp;Humidity;BMP_temperature;BMP_pressure;BME280_temperature;BME280_humidity;BME280_pressure;Samples;Min_cycle;Max_cycle;Signal;HPM_P1;HPM_P2
2022/01/08 09:50:55;;;;;;;2.10;1.90;;;0.00;99.90;;;;;;5091475;28;20972;-78
2022/01/08 09:53:21;;;;;;;1.83;1.70;;;0.20;99.90;;;;;;5091790;28;20407;-78
2022/01/08 09:55:47;;;;;;;1.60;1.43;;;0.20;99.90;;;;;;5091655;28;20172;-77
2022/01/08 09:58:13;;;;;;;1.17;1.07;;;0.00;99.90;;;;;;5090217;28;20451;-77
2022/01/08 10:00:40;;;;;;;1.50;1.40;;;-0.60;99.90;;;;;;5091258;28;20860;-77
2022/01/08 10:03:13;;;;;;;2.30;2.10;;;-0.90;99.90;;;;;;5091465;28;20183;-78
2022/01/08 10:05:50;;;;;;;2.23;2.00;;;-0.90;99.90;;;;;;5091206;28;20402;-77
2022/01/08 10:08:23;;;;;;;1.80;1.50;;;-0.80;99.90;;;;;;5089744;28;20448;-77
2022/01/08 10:10:55;;;;;;;2.00;1.90;;;-0.70;99.90;;;;;;5089548;28;20517;-78
2022/01/08 10:13:24;;;;;;;4.97;3.67;;;-0.50;99.90;;;;;;5091101;28;20746;-78
2022/01/08 10:18:38;;;;;;;18.67;10.60;;;-0.10;99.90;;;;;;5091347;28;20437;-78
2022/01/08 10:21:23;;;;;;;7.13;5.10;;;0.20;99.90;;;;;;5089571;28;20778;-78
2022/01/08 10:23:52;;;;;;;6.13;5.53;;;0.70;99.90;;;;;;5090308;28;20414;-78
2022/01/08 10:26:42;;;;;;;4.30;3.80;;;0.90;99.90;;;;;;5090770;28;20767;-78
2022/01/08 10:29:13;;;;;;;3.13;2.80;;;1.20;99.90;;;;;;5090130;28;20461;-78
2022/01/08 10:31:41;;;;;;;4.40;3.47;;;1.40;99.90;;;;;;5090794;28;20417;-78
2022/01/08 10:34:10;;;;;;;11.00;6.10;;;1.50;99.90;;;;;;5090508;28;20423;-78
2022/01/08 10:37:01;;;;;;;6.60;5.80;;;1.40;99.90;;;;;;5091913;28;20414;-79
2022/01/08 10:39:33;;;;;;;4.93;4.43;;;1.00;99.90;;;;;;5082952;28;20259;-79
2022/01/08 10:42:13;;;;;;;3.00;2.53;;;0.90;99.90;;;;;;5091887;28;20780;-79
2022/01/08 10:44:41;;;;;;;4.47;3.67;;;0.90;99.90;;;;;;5092031;28;20513;-79
2022/01/08 10:47:13;;;;;;;6.87;4.63;;;1.10;99.90;;;;;;5091163;28;20183;-79
2022/01/08 10:50:00;;;;;;;14.87;7.60;;;1.20;99.90;;;;;;5093375;28;20470;-78
2022/01/08 10:52:27;;;;;;;4.27;3.10;;;1.80;99.90;;;;;;5089598;28;20411;-79
2022/01/08 10:54:58;;;;;;;4.30;3.10;;;2.30;99.90;;;;;;5090840;28;20407;-79
2022/01/08 10:57:39;;;;;;;2.00;1.90;;;2.40;99.90;;;;;;5093901;28;20470;-80
2022/01/08 11:00:07;;;;;;;2.27;2.07;;;1.80;99.90;;;;;;5091056;28;20909;-79
2022/01/08 11:02:33;;;;;;;1.87;1.53;;;1.50;99.90;;;;;;5079223;28;20181;-79
2022/01/08 11:05:03;;;;;;;2.60;2.40;;;1.30;99.90;;;;;;5088248;28;20425;-78
2022/01/08 11:07:33;;;;;;;2.17;1.70;;;1.40;99.90;;;;;;5090465;28;20176;-78
2022/01/08 11:10:08;;;;;;;3.07;1.90;;;1.30;99.90;;;;;;5087371;28;20207;-79
2022/01/08 11:12:44;;;;;;;1.93;1.83;;;1.10;99.90;;;;;;5079636;28;20185;-79
2022/01/08 11:17:41;;;;;;;3.70;1.57;;;1.30;99.90;;;;;;5079270;28;20490;-79
2022/01/08 11:20:22;;;;;;;4.87;2.73;;;1.50;99.90;;;;;;5079170;28;20456;-79
2022/01/08 11:22:50;;;;;;;7.63;5.73;;;1.50;99.90;;;;;;5078236;28;20831;-78
2022/01/08 11:25:23;;;;;;;4.13;3.73;;;1.50;99.90;;;;;;5076817;28;20275;-79
2022/01/08 11:27:55;;;;;;;1.97;1.87;;;1.40;99.90;;;;;;5077377;28;20415;-79
2022/01/08 11:30:30;;;;;;;2.53;2.30;;;1.50;99.90;;;;;;5076705;28;20463;-79
2022/01/08 11:33:01;;;;;;;3.03;1.87;;;1.60;99.90;;;;;;5077182;28;20241;-79
2022/01/08 11:35:30;;;;;;;3.30;2.40;;;1.50;99.90;;;;;;5077125;28;20403;-79
2022/01/08 11:37:56;;;;;;;4.57;2.53;;;1.50;99.90;;;;;;5076983;28;20955;-79
2022/01/08 11:40:25;;;;;;;3.50;2.73;;;1.40;99.90;;;;;;5077825;28;20169;-79
2022/01/08 11:42:51;;;;;;;2.07;1.90;;;2.10;99.90;;;;;;5076247;28;20183;-79
2022/01/08 11:45:21;;;;;;;7.60;4.50;;;1.70;99.90;;;;;;5077390;28;20647;-79
2022/01/08 11:47:52;;;;;;;6.63;3.70;;;1.50;99.90;;;;;;5076517;28;20411;-79
2022/01/08 11:50:21;;;;;;;12.40;8.23;;;1.40;99.90;;;;;;5077322;28;20612;-79
2022/01/08 11:53:16;;;;;;;2.63;1.63;;;1.30;99.90;;;;;;5076040;28;20173;-79
2022/01/08 11:55:44;;;;;;;1.90;1.70;;;1.20;99.90;;;;;;5077601;28;20403;-79
2022/01/08 11:58:31;;;;;;;3.00;2.70;;;1.10;99.90;;;;;;5077470;28;20480;-78
2022/01/08 12:01:14;;;;;;;2.47;1.90;;;1.00;99.90;;;;;;5077378;28;20410;-78
2022/01/08 12:03:51;;;;;;;4.47;2.80;;;0.90;99.90;;;;;;5076830;28;20408;-78
2022/01/08 12:06:24;;;;;;;2.17;1.57;;;1.20;99.90;;;;;;5077401;28;20229;-79
2022/01/08 12:09:07;;;;;;;4.63;2.40;;;1.20;99.90;;;;;;5076662;28;20626;-79
2022/01/08 12:11:54;;;;;;;3.10;2.80;;;2.60;99.90;;;;;;5076993;28;20457;-79
2022/01/08 12:14:27;;;;;;;2.30;1.87;;;3.40;99.90;;;;;;5075452;28;20414;-79
2022/01/08 12:17:18;;;;;;;5.93;4.07;;;3.00;99.90;;;;;;5077348;28;20411;-79
2022/01/08 12:19:53;;;;;;;7.63;3.97;;;3.10;99.90;;;;;;5071575;28;20297;-79
2022/01/08 12:22:18;;;;;;;2.33;2.13;;;3.50;99.90;;;;;;5077524;28;20173;-79
2022/01/08 12:24:52;;;;;;;2.47;1.90;;;3.20;99.90;;;;;;5079586;28;20653;-79
2022/01/08 12:27:39;;;;;;;10.43;5.17;;;2.80;99.90;;;;;;5077225;28;20198;-79
2022/01/08 12:30:31;;;;;;;16.93;6.67;;;2.30;99.90;;;;;;5077130;28;20227;-79
2022/01/08 12:33:19;;;;;;;5.73;3.40;;;2.10;99.90;;;;;;5080975;28;20532;-79
2022/01/08 12:35:45;;;;;;;2.83;1.80;;;2.50;99.90;;;;;;5078746;28;20169;-79
2022/01/08 12:38:32;;;;;;;4.27;2.50;;;2.60;99.90;;;;;;5076373;28;20591;-79
2022/01/08 12:40:59;;;;;;;2.00;1.90;;;2.80;99.90;;;;;;5075199;28;20180;-78
2022/01/08 12:43:37;;;;;;;2.83;1.73;;;2.70;99.90;;;;;;5075518;28;20185;-79
2022/01/08 12:46:22;;;;;;;3.20;1.90;;;2.40;99.90;;;;;;5075394;28;20203;-79
2022/01/08 12:49:10;;;;;;;1.83;1.60;;;2.10;99.90;;;;;;5074889;28;20201;-79
2022/01/08 12:51:47;;;;;;;2.53;1.77;;;1.90;99.90;;;;;;5074917;28;20169;-79
2022/01/08 12:54:16;;;;;;;4.00;2.47;;;1.70;99.90;;;;;;5076871;28;20169;-79
2022/01/08 12:56:52;;;;;;;3.13;1.90;;;1.70;99.90;;;;;;5075911;28;20212;-79
2022/01/08 12:59:20;;;;;;;3.33;1.97;;;1.60;99.90;;;;;;5074868;28;20193;-79
2022/01/08 13:01:47;;;;;;;3.53;2.97;;;1.50;99.90;;;;;;5075896;28;20189;-78
2022/01/08 13:04:16;;;;;;;7.80;2.97;;;1.60;99.90;;;;;;5078200;28;20708;-79
2022/01/08 13:06:43;;;;;;;2.73;2.27;;;1.60;99.90;;;;;;5076063;28;20177;-79
2022/01/08 13:09:09;;;;;;;3.97;2.43;;;1.90;99.90;;;;;;5074751;28;20221;-79
2022/01/08 13:11:37;;;;;;;4.87;2.80;;;2.10;99.90;;;;;;5075954;28;20250;-79
2022/01/08 13:14:08;;;;;;;19.17;8.27;;;2.20;99.90;;;;;;5076272;28;20169;-79
2022/01/08 13:16:44;;;;;;;21.80;9.17;;;2.40;99.90;;;;;;5075885;28;20203;-79
2022/01/08 13:19:23;;;;;;;2.20;1.70;;;2.20;99.90;;;;;;5074773;28;20603;-79
2022/01/08 13:22:02;;;;;;;7.10;2.90;;;2.10;99.90;;;;;;5074484;28;20420;-79
2022/01/08 13:24:30;;;;;;;5.67;3.13;;;1.90;99.90;;;;;;5074489;28;20233;-79
2022/01/08 13:26:59;;;;;;;35.00;13.33;;;2.10;99.90;;;;;;5074709;28;20205;-78
2022/01/08 13:29:36;;;;;;;12.73;6.30;;;2.10;99.90;;;;;;5076114;28;20204;-79
2022/01/08 13:32:17;;;;;;;3.47;2.93;;;2.00;99.90;;;;;;5076937;28;20406;-79
2022/01/08 13:35:06;;;;;;;7.13;4.17;;;1.80;99.90;;;;;;5076134;28;20179;-78
2022/01/08 13:37:33;;;;;;;2.83;2.30;;;1.70;99.90;;;;;;5078678;28;20399;-79
2022/01/08 13:40:01;;;;;;;6.43;3.80;;;1.60;99.90;;;;;;5077344;28;20524;-78
2022/01/08 13:42:32;;;;;;;3.87;3.30;;;1.50;99.90;;;;;;5075786;28;20665;-79
2022/01/08 13:45:00;;;;;;;2.63;2.07;;;1.40;99.90;;;;;;5073780;28;20443;-78
2022/01/08 13:47:33;;;;;;;2.93;1.60;;;1.20;99.90;;;;;;5073158;28;20173;-79
2022/01/08 13:50:21;;;;;;;2.73;1.40;;;1.10;99.90;;;;;;5072774;28;20470;-78
2022/01/08 13:53:03;;;;;;;2.03;1.57;;;1.10;99.90;;;;;;5074936;28;20543;-79
2022/01/08 13:55:40;;;;;;;7.60;4.07;;;1.20;99.90;;;;;;5076113;28;20489;-79
2022/01/08 13:58:19;;;;;;;2.73;2.00;;;1.00;99.90;;;;;;5076430;28;20426;-79
2022/01/08 14:00:50;;;;;;;3.20;2.50;;;1.00;99.90;;;;;;5075497;28;20410;-79
2022/01/08 14:03:26;;;;;;;2.20;1.20;;;1.00;99.90;;;;;;5075586;28;20415;-79
2022/01/08 14:05:54;;;;;;;3.13;1.83;;;1.00;99.90;;;;;;5073906;28;20422;-79
2022/01/08 14:08:20;;;;;;;3.13;1.37;;;1.00;99.90;;;;;;5074536;28;20589;-78
2022/01/08 14:10:47;;;;;;;1.50;1.40;;;0.90;99.90;;;;;;5075143;28;20702;-79
2022/01/08 14:13:19;;;;;;;1.50;1.40;;;0.90;99.90;;;;;;5075549;28;20180;-78
2022/01/08 14:15:46;;;;;;;4.43;2.00;;;0.90;99.90;;;;;;5075447;28;20174;-79
2022/01/08 14:18:21;;;;;;;1.70;1.17;;;0.90;99.90;;;;;;5074272;28;20199;-79
2022/01/08 14:20:52;;;;;;;2.30;1.20;;;0.90;99.90;;;;;;5074071;28;20176;-79
2022/01/08 14:23:27;;;;;;;1.30;1.20;;;1.00;99.90;;;;;;5075254;28;20631;-79
2022/01/08 14:25:53;;;;;;;2.50;1.30;;;0.80;99.90;;;;;;5075320;28;20172;-79
2022/01/08 14:28:31;;;;;;;4.03;2.00;;;0.70;99.90;;;;;;5073897;28;20264;-78
2022/01/08 14:31:18;;;;;;;4.90;2.27;;;0.70;99.90;;;;;;5073611;28;20211;-78
2022/01/08 14:34:00;;;;;;;13.57;5.33;;;0.70;99.90;;;;;;5074671;28;20218;-79
2022/01/08 14:36:37;;;;;;;13.90;5.47;;;0.60;99.90;;;;;;5075776;28;20176;-79
2022/01/08 14:39:03;;;;;;;7.87;3.33;;;0.60;99.90;;;;;;5078045;28;20756;-78
2022/01/08 14:41:31;;;;;;;6.10;2.50;;;0.50;99.90;;;;;;5077501;28;20181;-78
2022/01/08 14:44:04;;;;;;;4.37;2.00;;;0.50;99.90;;;;;;5078101;28;20178;-79
2022/01/08 14:46:31;;;;;;;1.70;1.33;;;0.40;99.90;;;;;;5079117;28;20199;-79
2022/01/08 14:48:57;;;;;;;1.90;1.40;;;0.40;99.90;;;;;;5077890;28;20227;-79
2022/01/08 14:51:29;;;;;;;2.50;1.33;;;0.40;99.90;;;;;;5079083;28;20172;-79
2022/01/08 14:53:58;;;;;;;1.43;1.27;;;0.40;99.90;;;;;;5079712;28;20177;-78
2022/01/08 14:56:23;;;;;;;2.30;1.30;;;0.40;99.90;;;;;;5093163;28;20178;-78
2022/01/08 14:58:49;;;;;;;3.03;1.60;;;0.20;99.90;;;;;;5097843;28;20247;-78
2022/01/08 15:01:15;;;;;;;6.30;2.47;;;0.30;99.90;;;;;;5098297;28;20178;-79
2022/01/08 15:03:41;;;;;;;3.17;2.30;;;0.30;99.90;;;;;;5079573;28;20174;-79
2022/01/08 15:06:07;;;;;;;3.87;1.80;;;0.20;99.90;;;;;;5078223;28;20682;-79
2022/01/08 15:08:32;;;;;;;2.40;1.53;;;0.30;99.90;;;;;;5077121;28;20259;-78
2022/01/08 15:10:58;;;;;;;1.87;1.50;;;0.30;99.90;;;;;;5078402;28;20205;-78
2022/01/08 15:13:24;;;;;;;4.23;2.73;;;0.20;99.90;;;;;;5077797;28;20220;-79
2022/01/08 15:15:49;;;;;;;8.93;2.30;;;0.20;99.90;;;;;;5079257;28;20184;-79
2022/01/08 15:18:15;;;;;;;5.87;2.33;;;0.20;99.90;;;;;;5081002;28;20208;-78
2022/01/08 15:20:40;;;;;;;2.93;1.90;;;0.10;99.90;;;;;;5077558;28;20262;-78
2022/01/08 15:23:06;;;;;;;7.03;2.37;;;0.10;99.90;;;;;;5076022;28;20645;-78
2022/01/08 15:25:33;;;;;;;3.17;1.87;;;0.10;99.90;;;;;;5077654;28;20619;-78
2022/01/08 15:27:59;;;;;;;7.30;4.30;;;0.10;99.90;;;;;;5077664;28;20685;-78
2022/01/08 15:30:26;;;;;;;2.67;1.90;;;0.10;99.90;;;;;;5075960;28;20303;-78
2022/01/08 15:32:51;;;;;;;3.27;2.00;;;0.20;99.90;;;;;;5076255;28;20537;-78
2022/01/08 15:35:18;;;;;;;2.70;2.10;;;0.10;99.90;;;;;;5076329;28;20183;-78
2022/01/08 15:37:44;;;;;;;4.93;2.07;;;0.10;99.90;;;;;;5077242;28;20260;-78
2022/01/08 15:40:11;;;;;;;2.50;1.70;;;0.20;99.90;;;;;;5077287;28;20220;-78
2022/01/08 15:42:36;;;;;;;7.40;4.17;;;0.00;99.90;;;;;;5075989;28;20595;-77
2022/01/08 15:45:03;;;;;;;14.83;7.07;;;-0.10;99.90;;;;;;5074368;28;20216;-77
2022/01/08 15:47:29;;;;;;;12.97;6.33;;;-0.10;99.90;;;;;;5076132;28;20217;-77
2022/01/08 15:49:55;;;;;;;21.43;10.53;;;-0.20;99.90;;;;;;5074137;28;20255;-77
2022/01/08 15:52:20;;;;;;;15.17;7.07;;;-0.20;99.90;;;;;;5075303;28;20177;-76
2022/01/08 15:54:46;;;;;;;12.67;6.70;;;-0.20;99.90;;;;;;5075879;28;20636;-76
2022/01/08 15:57:13;;;;;;;10.90;5.13;;;-0.30;99.90;;;;;;5075583;28;20537;-76
2022/01/08 15:59:38;;;;;;;8.00;4.63;;;-0.30;99.90;;;;;;5075542;28;20208;-77
2022/01/08 16:02:04;;;;;;;9.83;5.90;;;-0.30;99.90;;;;;;5075295;28;20181;-77
2022/01/08 16:04:30;;;;;;;10.33;6.07;;;-0.30;99.90;;;;;;5074417;28;20192;-77
2022/01/08 16:06:56;;;;;;;9.00;3.97;;;-0.40;99.90;;;;;;5071012;28;20182;-77
2022/01/08 16:09:21;;;;;;;10.17;4.60;;;-0.30;99.90;;;;;;5062003;28;20515;-77
2022/01/08 16:11:47;;;;;;;11.17;5.17;;;-0.40;99.90;;;;;;5069972;28;20177;-77
2022/01/08 16:14:13;;;;;;;8.37;4.57;;;-0.40;99.90;;;;;;5075202;28;20183;-77
2022/01/08 16:16:39;;;;;;;6.10;3.37;;;-0.40;99.90;;;;;;5074957;28;20554;-77
2022/01/08 16:19:04;;;;;;;4.47;2.80;;;-0.40;99.90;;;;;;5074983;28;20224;-77
2022/01/08 16:21:34;;;;;;;7.80;4.27;;;-0.40;99.90;;;;;;5074587;28;20213;-77
2022/01/08 16:24:00;;;;;;;6.77;4.17;;;-0.50;99.90;;;;;;5074767;28;20218;-77
2022/01/08 16:26:25;;;;;;;9.03;5.33;;;-0.50;99.90;;;;;;5073297;28;20416;-77
2022/01/08 16:28:51;;;;;;;7.17;4.30;;;-0.50;99.90;;;;;;5074819;28;20195;-77
2022/01/08 16:31:22;;;;;;;2.90;2.13;;;-0.50;99.90;;;;;;5073085;28;20519;-76
2022/01/08 16:33:50;;;;;;;3.43;2.83;;;-0.50;99.90;;;;;;5073267;28;20169;-77
2022/01/08 16:36:15;;;;;;;5.23;2.90;;;-0.40;99.90;;;;;;5074677;28;20422;-76
2022/01/08 16:38:43;;;;;;;5.87;2.80;;;-0.50;99.90;;;;;;5074535;28;20427;-76
2022/01/08 16:41:09;;;;;;;5.90;3.33;;;-0.50;99.90;;;;;;5073080;28;20173;-77
2022/01/08 16:43:36;;;;;;;5.13;3.37;;;-0.50;99.90;;;;;;5060201;28;20444;-76
2022/01/08 16:46:05;;;;;;;4.67;3.37;;;0.40;99.90;;;;;;5075031;28;20434;-76
2022/01/08 16:48:30;;;;;;;5.17;3.30;;;-0.70;99.90;;;;;;5055711;28;20438;-76
2022/01/08 16:50:58;;;;;;;5.17;3.27;;;-0.70;99.90;;;;;;5054273;28;20456;-76
2022/01/08 16:53:24;;;;;;;4.80;3.50;;;-0.70;99.90;;;;;;5053885;28;20264;-76
2022/01/08 16:55:50;;;;;;;6.57;4.53;;;-0.80;99.90;;;;;;5072954;28;21053;-76
2022/01/08 16:58:16;;;;;;;9.77;5.20;;;-0.80;99.90;;;;;;5073565;28;20505;-76
2022/01/08 17:00:42;;;;;;;8.53;5.00;;;-0.80;99.90;;;;;;5062032;28;20244;-76
2022/01/08 17:03:07;;;;;;;11.67;5.43;;;-0.80;99.90;;;;;;5054374;28;20450;-76
2022/01/08 17:05:38;;;;;;;26.57;10.87;;;-0.90;99.90;;;;;;5053906;28;20234;-76
2022/01/08 17:08:05;;;;;;;6.90;3.87;;;-1.00;99.90;;;;;;5052621;28;20208;-77
2022/01/08 17:10:31;;;;;;;6.83;3.77;;;-1.10;99.90;;;;;;5053734;28;20539;-76
2022/01/08 17:12:57;;;;;;;10.80;4.40;;;-1.10;99.90;;;;;;5054120;28;20809;-76
2022/01/08 17:15:23;;;;;;;7.83;3.90;;;-1.20;99.90;;;;;;5052593;28;20170;-76
2022/01/08 17:17:50;;;;;;;6.63;4.07;;;-1.20;99.90;;;;;;5053788;28;20662;-76
2022/01/08 17:20:16;;;;;;;8.63;4.30;;;-1.20;99.90;;;;;;5053493;28;20408;-76
2022/01/08 17:22:42;;;;;;;7.43;4.27;;;-1.20;99.90;;;;;;5053708;28;20472;-76
2022/01/08 17:25:08;;;;;;;8.50;4.67;;;-1.20;99.90;;;;;;5053750;28;20173;-76
2022/01/08 17:27:34;;;;;;;5.40;3.70;;;-1.20;99.90;;;;;;5052316;28;20491;-76
2022/01/08 17:30:00;;;;;;;6.13;4.70;;;-1.20;99.90;;;;;;5053331;28;21083;-76
2022/01/08 17:32:26;;;;;;;5.13;2.93;;;-1.10;99.90;;;;;;5053573;28;20174;-76
2022/01/08 17:34:51;;;;;;;8.10;4.63;;;-1.10;99.90;;;;;;5053518;28;20617;-76
2022/01/08 17:37:17;;;;;;;8.33;4.43;;;-1.10;99.90;;;;;;5053792;28;20193;-76
2022/01/08 17:39:47;;;;;;;5.97;3.43;;;-1.00;99.90;;;;;;5052091;28;20198;-76
2022/01/08 17:42:13;;;;;;;7.10;4.23;;;-1.00;99.90;;;;;;5052072;28;20323;-76
2022/01/08 17:44:39;;;;;;;5.80;3.80;;;-1.00;99.90;;;;;;5053369;28;20852;-77
2022/01/08 17:47:05;;;;;;;8.07;4.00;;;-1.00;99.90;;;;;;5053415;28;20177;-76
2022/01/08 17:49:32;;;;;;;6.33;3.77;;;-1.10;99.90;;;;;;5051922;28;20559;-76
2022/01/08 17:51:59;;;;;;;4.27;3.20;;;-1.00;99.90;;;;;;5051983;28;20416;-76
2022/01/08 17:54:25;;;;;;;5.30;3.53;;;-1.00;99.90;;;;;;5053228;28;20442;-76
2022/01/08 17:56:51;;;;;;;7.37;4.17;;;-1.00;99.90;;;;;;5051910;28;20418;-76
2022/01/08 17:59:17;;;;;;;8.13;4.33;;;-1.00;99.90;;;;;;5053206;28;20194;-76
2022/01/08 18:01:42;;;;;;;8.10;3.90;;;-1.00;99.90;;;;;;5051892;28;20181;-77
2022/01/08 18:04:08;;;;;;;8.33;3.77;;;-1.00;99.90;;;;;;5053799;28;20560;-77
2022/01/08 18:06:34;;;;;;;7.00;3.30;;;-1.00;99.90;;;;;;5053363;28;20180;-77
2022/01/08 18:09:00;;;;;;;4.30;3.23;;;-1.00;99.90;;;;;;5053157;28;20212;-77
2022/01/08 18:11:26;;;;;;;6.33;3.87;;;-1.00;99.90;;;;;;5055012;28;20177;-78
2022/01/08 18:13:52;;;;;;;7.40;3.60;;;-1.00;99.90;;;;;;5057423;28;20408;-77
2022/01/08 18:16:18;;;;;;;6.83;3.50;;;-1.00;99.90;;;;;;5057428;28;20412;-77
2022/01/08 18:18:46;;;;;;;7.50;3.50;;;-1.00;99.90;;;;;;5055985;28;20189;-77
2022/01/08 18:21:12;;;;;;;7.30;3.20;;;-0.50;99.90;;;;;;5055636;28;20412;-77
2022/01/08 18:23:38;;;;;;;5.03;3.07;;;0.30;99.90;;;;;;5056979;28;20416;-77
2022/01/08 18:26:04;;;;;;;4.97;3.23;;;-1.10;99.90;;;;;;5057020;28;20503;-77
2022/01/08 18:28:29;;;;;;;6.37;3.27;;;-1.10;99.90;;;;;;5057976;28;20196;-77
2022/01/08 18:30:55;;;;;;;6.63;3.47;;;-1.20;99.90;;;;;;5057111;28;20224;-77
2022/01/08 18:33:21;;;;;;;6.70;3.67;;;-1.10;99.90;;;;;;5057536;28;20166;-77
2022/01/08 18:35:47;;;;;;;7.50;3.53;;;-1.20;99.90;;;;;;5055947;28;20288;-77
2022/01/08 18:38:12;;;;;;;8.03;3.80;;;-1.20;99.90;;;;;;5056371;28;20190;-77
2022/01/08 18:40:38;;;;;;;11.60;6.37;;;-1.30;99.90;;;;;;5055933;28;20174;-77
2022/01/08 18:43:04;;;;;;;12.70;5.17;;;-1.30;99.90;;;;;;5057666;28;20185;-77
2022/01/08 18:45:35;;;;;;;10.37;5.10;;;-1.30;99.90;;;;;;5057501;28;20189;-77
2022/01/08 18:48:01;;;;;;;9.70;4.87;;;-1.40;99.90;;;;;;5057766;28;20208;-77
2022/01/08 18:50:29;;;;;;;9.57;4.77;;;-1.40;99.90;;;;;;5056963;28;20542;-77
2022/01/08 18:52:54;;;;;;;8.43;4.83;;;-1.40;99.90;;;;;;5059139;28;20404;-77
2022/01/08 18:55:20;;;;;;;7.90;4.17;;;-1.40;99.90;;;;;;5056787;28;20415;-76
2022/01/08 18:57:47;;;;;;;8.27;4.23;;;-1.50;99.90;;;;;;5057560;28;20174;-77
2022/01/08 19:00:16;;;;;;;6.40;4.20;;;-1.50;99.90;;;;;;5058429;28;20178;-76
2022/01/08 19:02:44;;;;;;;10.03;4.20;;;-1.50;99.90;;;;;;5058652;28;20428;-77
2022/01/08 19:05:11;;;;;;;7.07;4.40;;;-1.50;99.90;;;;;;5057114;28;20836;-76
2022/01/08 19:07:37;;;;;;;7.20;4.67;;;-1.60;99.90;;;;;;5058564;28;20443;-76
2022/01/08 19:10:05;;;;;;;7.53;4.00;;;-1.60;99.90;;;;;;5057945;28;20451;-76
2022/01/08 19:12:31;;;;;;;6.53;4.40;;;-1.70;99.90;;;;;;5058329;28;20499;-76
2022/01/08 19:14:56;;;;;;;6.03;2.97;;;-1.60;99.90;;;;;;5057559;28;20499;-76
2022/01/08 19:17:23;;;;;;;8.00;4.30;;;-1.60;99.90;;;;;;5057347;28;20184;-77
2022/01/08 19:19:49;;;;;;;7.03;4.00;;;-1.70;99.90;;;;;;5056927;28;20693;-77
2022/01/08 19:22:15;;;;;;;8.40;3.80;;;-1.70;99.90;;;;;;5056103;28;20416;-77
2022/01/08 19:24:40;;;;;;;7.33;4.10;;;-1.70;99.90;;;;;;5058136;28;20178;-76
2022/01/08 19:27:07;;;;;;;7.17;3.03;;;-1.80;99.90;;;;;;5057664;28;20713;-77
2022/01/08 19:29:32;;;;;;;5.10;3.50;;;-1.80;99.90;;;;;;5056413;28;20211;-77
2022/01/08 19:31:58;;;;;;;5.63;2.90;;;-1.80;99.90;;;;;;5057300;28;20408;-77
2022/01/08 19:34:23;;;;;;;5.60;3.57;;;-1.80;99.90;;;;;;5057781;28;20291;-76
2022/01/08 19:36:49;;;;;;;4.93;3.33;;;-1.80;99.90;;;;;;5057780;28;20165;-77
2022/01/08 19:39:15;;;;;;;4.27;3.20;;;-1.80;99.90;;;;;;5057723;28;20251;-77
2022/01/08 19:41:40;;;;;;;5.70;3.13;;;-1.80;99.90;;;;;;5056456;28;20193;-77
2022/01/08 19:44:06;;;;;;;5.23;2.73;;;-1.80;99.90;;;;;;5058327;28;20170;-77
2022/01/08 19:46:32;;;;;;;9.60;3.80;;;-1.80;99.90;;;;;;5057913;28;20177;-77
2022/01/08 19:48:58;;;;;;;7.97;3.20;;;-1.80;99.90;;;;;;5057474;28;20215;-77
2022/01/08 19:51:24;;;;;;;4.57;3.43;;;-1.50;99.90;;;;;;5056060;28;20201;-77
2022/01/08 19:53:51;;;;;;;6.60;3.00;;;-1.70;99.90;;;;;;5057047;28;20913;-76
2022/01/08 19:56:17;;;;;;;6.23;4.40;;;-1.70;99.90;;;;;;5056766;28;20184;-77
2022/01/08 19:58:43;;;;;;;12.73;8.77;;;-1.70;99.90;;;;;;5055841;28;20432;-77
